createdAt,value
2022-09-05T00:03:52.258Z,20.49
2022-09-05T00:11:42.487Z,20.39
2022-09-05T00:24:19.236Z,20.32
2022-09-05T00:26:50.218Z,20.19
2022-09-05T00:34:10.545Z,20.11
2022-09-05T00:41:12.856Z,20.09
2022-09-05T00:48:25.814Z,20.09
2022-09-05T00:55:48.035Z,19.91
2022-09-05T01:03:10.636Z,19.85
2022-09-05T01:10:40.192Z,19.78
2022-09-05T01:17:53.564Z,19.73
2022-09-05T01:25:32.805Z,19.62
2022-09-05T01:33:10.245Z,19.50
2022-09-05T01:40:34.540Z,19.43
2022-09-05T01:47:50.089Z,19.33
2022-09-05T01:55:22.525Z,19.25
2022-09-05T02:02:50.314Z,19.14
2022-09-05T02:09:52.430Z,19.14
2022-09-05T02:17:27.211Z,18.98
2022-09-05T02:24:44.967Z,18.95
2022-09-05T02:31:48.434Z,18.91
2022-09-05T02:42:38.328Z,18.92
2022-09-05T02:46:18.736Z,18.85
2022-09-05T02:57:36.306Z,18.78
2022-09-05T03:00:53.815Z,18.77
2022-09-05T03:08:11.508Z,18.77
2022-09-05T03:15:22.565Z,18.61
2022-09-05T03:22:28.833Z,18.60
2022-09-05T03:29:58.672Z,18.54
2022-09-05T03:37:06.986Z,18.50
2022-09-05T03:44:36.041Z,18.44
2022-09-05T03:57:04.833Z,18.34
2022-09-05T03:59:27.070Z,18.29
2022-09-05T04:08:18.264Z,18.28
2022-09-05T04:14:20.481Z,18.17
2022-09-05T04:21:26.647Z,18.09
2022-09-05T04:28:28.162Z,18.02
2022-09-05T04:36:17.812Z,17.99
2022-09-05T04:43:29.705Z,17.97
2022-09-05T04:50:37.666Z,17.92
2022-09-05T04:58:02.765Z,17.90
2022-09-05T05:06:12.748Z,17.96
2022-09-05T05:17:57.398Z,17.95
2022-09-05T05:20:41.239Z,17.98
2022-09-05T05:28:21.237Z,18.04
2022-09-05T05:35:29.482Z,18.09
2022-09-05T05:42:31.130Z,18.15
2022-09-05T05:49:54.307Z,18.21
2022-09-05T05:56:58.887Z,18.17
2022-09-05T06:04:16.686Z,18.18
2022-09-05T06:14:59.036Z,18.26
2022-09-05T06:19:17.080Z,18.34
2022-09-05T06:26:49.200Z,18.36
2022-09-05T06:34:03.059Z,18.36
2022-09-05T06:41:20.381Z,18.49
2022-09-05T06:49:28.958Z,18.75
2022-09-05T06:56:32.783Z,18.99
2022-09-05T07:03:45.179Z,19.27
2022-09-05T07:11:15.600Z,19.47
2022-09-05T07:18:43.560Z,19.67
2022-09-05T07:25:48.186Z,19.81
2022-09-05T07:32:52.315Z,20.11
2022-09-05T07:39:58.466Z,20.40
2022-09-05T07:47:10.426Z,20.74
2022-09-05T07:57:08.357Z,21.05
2022-09-05T08:01:46.580Z,21.12
2022-09-05T08:09:18.107Z,21.64
2022-09-05T08:16:15.494Z,22.03
2022-09-05T08:23:46.684Z,22.09
2022-09-05T08:31:00.024Z,21.95
2022-09-05T08:38:01.779Z,22.37
2022-09-05T08:46:39.203Z,22.85
2022-09-05T08:52:54.672Z,23.40
2022-09-05T09:00:18.904Z,24.10
2022-09-05T09:07:51.478Z,24.78
2022-09-05T09:14:59.799Z,24.98
2022-09-05T09:22:34.841Z,25.60
2022-09-05T09:29:40.005Z,26.41
2022-09-05T09:37:03.304Z,26.73
2022-09-05T09:44:23.299Z,27.39
2022-09-05T09:51:31.431Z,27.71
2022-09-05T09:58:53.214Z,28.24
2022-09-05T10:10:44.211Z,28.33
2022-09-05T10:13:55.319Z,28.17
2022-09-05T10:21:24.471Z,28.52
2022-09-05T10:28:39.195Z,29.77
2022-09-05T10:35:42.558Z,29.49
2022-09-05T10:43:00.731Z,30.24
2022-09-05T10:50:06.334Z,30.71
2022-09-05T10:57:35.585Z,30.35
2022-09-05T11:05:04.730Z,30.51
2022-09-05T11:12:25.959Z,31.80
2022-09-05T11:20:02.512Z,31.97
2022-09-05T11:27:24.439Z,32.10
2022-09-05T11:40:10.956Z,32.43
2022-09-05T11:42:39.296Z,32.16
2022-09-05T11:50:02.461Z,33.28
2022-09-05T11:57:34.071Z,33.50
2022-09-05T12:05:48.818Z,33.66
2022-09-05T12:12:41.739Z,32.86
2022-09-05T12:19:56.807Z,32.56
2022-09-05T12:27:38.660Z,32.31
2022-09-05T12:36:12.957Z,32.35
2022-09-05T12:42:30.423Z,32.48
2022-09-05T12:49:52.225Z,32.92
2022-09-05T12:59:50.917Z,33.34
2022-09-05T13:04:46.437Z,33.13
2022-09-05T13:14:49.267Z,33.29
2022-09-05T13:19:37.775Z,33.58
2022-09-05T13:26:43.091Z,33.94
2022-09-05T13:37:59.736Z,32.65
2022-09-05T13:41:27.200Z,32.73
2022-09-05T13:56:23.751Z,32.98
2022-09-05T14:03:37.961Z,33.38
2022-09-05T14:10:55.362Z,33.89
2022-09-05T14:18:26.714Z,33.38
2022-09-05T14:25:29.255Z,33.52
2022-09-05T14:37:36.273Z,33.28
2022-09-05T14:41:04.029Z,32.59
2022-09-05T14:48:18.391Z,32.72
2022-09-05T14:55:20.953Z,33.00
2022-09-05T15:02:51.985Z,32.24
2022-09-05T15:12:19.690Z,31.68
2022-09-05T15:17:50.271Z,31.94
2022-09-05T15:25:18.148Z,31.64
2022-09-05T15:32:24.769Z,31.34
2022-09-05T15:39:28.224Z,30.93
2022-09-05T15:46:46.619Z,30.28
2022-09-05T15:53:48.270Z,30.16
2022-09-05T16:00:51.913Z,30.04
2022-09-05T16:10:40.246Z,29.76
2022-09-05T16:22:01.248Z,30.12
2022-09-05T16:23:39.343Z,29.87
2022-09-05T16:30:39.242Z,29.45
2022-09-05T16:37:50.335Z,29.36
2022-09-05T16:45:17.186Z,28.81
2022-09-05T16:52:18.781Z,28.36
2022-09-05T16:59:22.337Z,28.10
2022-09-05T17:06:26.038Z,27.89
2022-09-05T17:13:31.206Z,27.39
2022-09-05T17:20:35.647Z,27.08
2022-09-05T17:29:36.091Z,26.88
2022-09-05T17:35:16.616Z,26.62
2022-09-05T17:42:20.049Z,26.47
2022-09-05T17:49:40.379Z,26.27
2022-09-05T17:56:43.197Z,26.07
2022-09-05T18:03:45.833Z,25.85
2022-09-05T18:11:02.044Z,25.69
2022-09-05T18:18:35.431Z,25.41
2022-09-05T18:25:53.639Z,25.24
2022-09-05T18:33:55.883Z,25.12
2022-09-05T18:40:57.747Z,25.02
2022-09-05T18:48:00.394Z,24.91
2022-09-05T18:55:34.035Z,24.78
2022-09-05T19:02:51.248Z,24.65
2022-09-05T19:10:35.024Z,24.50
2022-09-05T19:17:45.321Z,24.36
2022-09-05T19:24:48.807Z,24.23
2022-09-05T19:37:13.244Z,24.12
2022-09-05T19:42:54.228Z,23.97
2022-09-05T19:47:35.045Z,23.88
2022-09-05T19:54:04.852Z,23.71
2022-09-05T20:01:08.361Z,23.60
2022-09-05T20:08:29.467Z,23.51
2022-09-05T20:15:36.258Z,23.37
2022-09-05T20:22:49.265Z,23.21
2022-09-05T20:29:55.904Z,23.10
2022-09-05T20:43:26.513Z,22.98
2022-09-05T20:44:41.241Z,22.82
2022-09-05T20:54:14.522Z,22.68
2022-09-05T20:59:12.597Z,22.60
2022-09-05T21:06:25.651Z,22.55
2022-09-05T21:13:36.842Z,22.40
2022-09-05T21:21:00.884Z,22.37
2022-09-05T21:28:06.976Z,22.25
2022-09-05T21:35:33.516Z,22.18
2022-09-05T21:47:27.468Z,22.07
2022-09-05T21:49:55.914Z,21.98
2022-09-05T21:59:28.694Z,21.85
2022-09-05T22:04:25.337Z,21.74
2022-09-05T22:11:27.021Z,21.52
2022-09-05T22:18:29.116Z,21.45
2022-09-05T22:25:32.130Z,21.43
2022-09-05T22:32:35.176Z,21.31
2022-09-05T22:39:38.126Z,21.20
2022-09-05T22:46:39.973Z,21.09
2022-09-05T22:53:41.621Z,21.02
2022-09-05T23:00:44.733Z,20.90
2022-09-05T23:07:46.681Z,20.78
2022-09-05T23:14:48.274Z,20.73
2022-09-05T23:21:49.917Z,20.58
2022-09-05T23:28:51.523Z,20.54
2022-09-05T23:35:53.137Z,20.51
2022-09-05T23:42:55.788Z,20.33
2022-09-05T23:49:57.421Z,20.28
2022-09-05T23:56:59.029Z,20.22
